sensor_id;sensor_type;location;lat;lon;timestamp;pressure;altitude;pressure_sealevel;temperature;humidity
11049;BME280;5577;42.706;23.160;2023-10-19T00:02:19;94245.91;;;9.72;100.00
11049;BME280;5577;42.706;23.160;2023-10-19T00:05:03;94234.59;;;9.60;100.00
11049;BME280;5577;42.706;23.160;2023-10-19T00:07:47;94236.13;;;9.33;100.00
11049;BME280;5577;42.706;23.160;2023-10-19T00:10:31;94233.50;;;9.21;100.00
11049;BME280;5577;42.706;23.160;2023-10-19T00:13:21;94236.50;;;9.08;100.00
11049;BME280;5577;42.706;23.160;2023-10-19T00:16:07;94232.19;;;9.15;100.00
11049;BME280;5577;42.706;23.160;2023-10-19T00:19:13;94228.81;;;9.03;100.00
11049;BME280;5577;42.706;23.160;2023-10-19T00:22:03;94224.53;;;8.98;100.00
11049;BME280;5577;42.706;23.160;2023-10-19T00:24:52;94216.09;;;8.80;100.00
11049;BME280;5577;42.706;23.160;2023-10-19T00:27:36;94223.47;;;8.87;100.00
11049;BME280;5577;42.706;23.160;2023-10-19T00:30:20;94224.78;;;8.81;100.00
11049;BME280;5577;42.706;23.160;2023-10-19T00:33:07;94216.19;;;8.72;100.00
11049;BME280;5577;42.706;23.160;2023-10-19T00:36:00;94220.50;;;8.52;100.00
11049;BME280;5577;42.706;23.160;2023-10-19T00:38:51;94216.31;;;8.27;100.00
11049;BME280;5577;42.706;23.160;2023-10-19T00:41:40;94216.09;;;8.32;100.00
11049;BME280;5577;42.706;23.160;2023-10-19T00:44:25;94219.19;;;8.22;100.00
11049;BME280;5577;42.706;23.160;2023-10-19T00:47:19;94221.09;;;8.13;100.00
11049;BME280;5577;42.706;23.160;2023-10-19T00:50:07;94219.13;;;8.10;100.00
11049;BME280;5577;42.706;23.160;2023-10-19T00:52:55;94223.97;;;8.08;100.00
11049;BME280;5577;42.706;23.160;2023-10-19T00:55:41;94220.31;;;8.01;100.00
11049;BME280;5577;42.706;23.160;2023-10-19T00:58:26;94228.69;;;8.03;100.00
11049;BME280;5577;42.706;23.160;2023-10-19T01:01:14;94216.56;;;8.02;100.00
11049;BME280;5577;42.706;23.160;2023-10-19T01:03:59;94229.25;;;8.08;100.00
11049;BME280;5577;42.706;23.160;2023-10-19T01:06:43;94224.25;;;7.95;100.00
11049;BME280;5577;42.706;23.160;2023-10-19T01:09:28;94225.34;;;7.82;100.00
11049;BME280;5577;42.706;23.160;2023-10-19T01:12:19;94232.09;;;7.71;100.00
11049;BME280;5577;42.706;23.160;2023-10-19T01:15:13;94222.56;;;7.78;100.00
11049;BME280;5577;42.706;23.160;2023-10-19T01:17:58;94227.38;;;7.76;100.00
11049;BME280;5577;42.706;23.160;2023-10-19T01:20:42;94225.19;;;7.66;100.00
11049;BME280;5577;42.706;23.160;2023-10-19T01:23:34;94219.38;;;7.73;100.00
11049;BME280;5577;42.706;23.160;2023-10-19T01:26:19;94224.19;;;7.71;100.00
11049;BME280;5577;42.706;23.160;2023-10-19T01:29:09;94222.47;;;7.75;100.00
11049;BME280;5577;42.706;23.160;2023-10-19T01:32:00;94217.28;;;7.66;100.00
11049;BME280;5577;42.706;23.160;2023-10-19T01:34:52;94202.84;;;7.52;100.00
11049;BME280;5577;42.706;23.160;2023-10-19T01:37:35;94228.47;;;7.75;100.00
11049;BME280;5577;42.706;23.160;2023-10-19T01:40:22;94213.00;;;7.74;100.00
11049;BME280;5577;42.706;23.160;2023-10-19T01:43:05;94235.88;;;7.82;100.00
11049;BME280;5577;42.706;23.160;2023-10-19T01:45:52;94190.94;;;7.46;100.00
11049;BME280;5577;42.706;23.160;2023-10-19T01:48:39;94217.69;;;7.56;100.00
11049;BME280;5577;42.706;23.160;2023-10-19T01:51:26;94230.88;;;7.68;100.00
11049;BME280;5577;42.706;23.160;2023-10-19T01:54:10;94216.09;;;7.76;100.00
11049;BME280;5577;42.706;23.160;2023-10-19T01:56:55;94221.91;;;7.81;100.00
11049;BME280;5577;42.706;23.160;2023-10-19T01:59:42;94222.88;;;7.77;100.00
11049;BME280;5577;42.706;23.160;2023-10-19T02:02:27;94224.63;;;7.73;100.00
11049;BME280;5577;42.706;23.160;2023-10-19T02:05:12;94218.88;;;7.59;100.00
11049;BME280;5577;42.706;23.160;2023-10-19T02:07:59;94227.66;;;7.51;100.00
11049;BME280;5577;42.706;23.160;2023-10-19T02:10:47;94219.22;;;7.57;100.00
11049;BME280;5577;42.706;23.160;2023-10-19T02:13:32;94223.69;;;7.57;100.00
11049;BME280;5577;42.706;23.160;2023-10-19T02:16:16;94217.94;;;7.43;100.00
11049;BME280;5577;42.706;23.160;2023-10-19T02:19:03;94224.38;;;7.33;100.00
11049;BME280;5577;42.706;23.160;2023-10-19T02:21:57;94227.66;;;7.30;100.00
11049;BME280;5577;42.706;23.160;2023-10-19T02:24:41;94220.28;;;7.24;100.00
11049;BME280;5577;42.706;23.160;2023-10-19T02:27:25;94221.34;;;7.02;100.00
11049;BME280;5577;42.706;23.160;2023-10-19T02:30:10;94221.44;;;7.14;100.00
11049;BME280;5577;42.706;23.160;2023-10-19T02:32:55;94223.94;;;7.11;100.00
11049;BME280;5577;42.706;23.160;2023-10-19T02:35:40;94217.13;;;7.10;100.00
11049;BME280;5577;42.706;23.160;2023-10-19T02:38:24;94219.66;;;7.06;100.00
11049;BME280;5577;42.706;23.160;2023-10-19T02:41:09;94226.31;;;7.04;100.00
11049;BME280;5577;42.706;23.160;2023-10-19T02:43:53;94211.81;;;6.98;100.00
11049;BME280;5577;42.706;23.160;2023-10-19T02:46:56;94220.47;;;6.98;100.00
11049;BME280;5577;42.706;23.160;2023-10-19T02:49:43;94213.88;;;6.92;100.00
11049;BME280;5577;42.706;23.160;2023-10-19T02:52:34;94215.41;;;6.93;100.00
11049;BME280;5577;42.706;23.160;2023-10-19T02:55:18;94216.81;;;6.91;100.00
11049;BME280;5577;42.706;23.160;2023-10-19T02:58:03;94207.31;;;6.78;100.00
11049;BME280;5577;42.706;23.160;2023-10-19T03:00:48;94216.38;;;6.60;100.00
11049;BME280;5577;42.706;23.160;2023-10-19T03:03:35;94213.13;;;6.63;100.00
11049;BME280;5577;42.706;23.160;2023-10-19T03:06:22;94209.72;;;6.62;100.00
11049;BME280;5577;42.706;23.160;2023-10-19T03:09:08;94183.72;;;6.40;100.00
11049;BME280;5577;42.706;23.160;2023-10-19T03:12:10;94205.72;;;6.56;100.00
11049;BME280;5577;42.706;23.160;2023-10-19T03:14:57;94210.81;;;6.61;100.00
11049;BME280;5577;42.706;23.160;2023-10-19T03:17:44;94206.19;;;6.58;100.00
11049;BME280;5577;42.706;23.160;2023-10-19T03:20:31;94214.97;;;6.62;100.00
11049;BME280;5577;42.706;23.160;2023-10-19T03:23:17;94211.22;;;6.43;100.00
11049;BME280;5577;42.706;23.160;2023-10-19T03:26:01;94214.81;;;6.59;100.00
11049;BME280;5577;42.706;23.160;2023-10-19T03:29:04;94215.81;;;6.54;100.00
11049;BME280;5577;42.706;23.160;2023-10-19T03:31:55;94217.53;;;6.50;100.00
11049;BME280;5577;42.706;23.160;2023-10-19T03:34:39;94200.75;;;6.34;100.00
11049;BME280;5577;42.706;23.160;2023-10-19T03:37:28;94205.06;;;6.39;100.00
11049;BME280;5577;42.706;23.160;2023-10-19T03:40:15;94205.81;;;6.39;100.00
11049;BME280;5577;42.706;23.160;2023-10-19T03:43:09;94199.53;;;6.32;100.00
11049;BME280;5577;42.706;23.160;2023-10-19T03:46:04;94194.25;;;6.32;100.00
11049;BME280;5577;42.706;23.160;2023-10-19T03:48:58;94190.84;;;6.31;100.00
11049;BME280;5577;42.706;23.160;2023-10-19T03:51:42;94197.56;;;6.20;100.00
11049;BME280;5577;42.706;23.160;2023-10-19T03:54:42;94199.38;;;6.28;100.00
11049;BME280;5577;42.706;23.160;2023-10-19T03:57:27;94201.25;;;6.28;100.00
11049;BME280;5577;42.706;23.160;2023-10-19T04:00:14;94202.78;;;6.29;100.00
11049;BME280;5577;42.706;23.160;2023-10-19T04:03:08;94205.06;;;6.39;100.00
11049;BME280;5577;42.706;23.160;2023-10-19T04:05:52;94202.69;;;6.46;100.00
11049;BME280;5577;42.706;23.160;2023-10-19T04:08:36;94203.06;;;6.36;100.00
11049;BME280;5577;42.706;23.160;2023-10-19T04:11:21;94192.47;;;6.24;100.00
11049;BME280;5577;42.706;23.160;2023-10-19T04:14:05;94200.16;;;6.29;100.00
11049;BME280;5577;42.706;23.160;2023-10-19T04:16:49;94209.25;;;6.31;100.00
11049;BME280;5577;42.706;23.160;2023-10-19T04:19:33;94197.53;;;6.29;100.00
11049;BME280;5577;42.706;23.160;2023-10-19T04:22:18;94195.81;;;6.33;100.00
11049;BME280;5577;42.706;23.160;2023-10-19T04:25:07;94166.03;;;6.20;100.00
11049;BME280;5577;42.706;23.160;2023-10-19T04:27:59;94194.53;;;6.39;100.00
11049;BME280;5577;42.706;23.160;2023-10-19T04:30:44;94187.75;;;6.38;100.00
11049;BME280;5577;42.706;23.160;2023-10-19T04:33:30;94181.25;;;6.35;100.00
11049;BME280;5577;42.706;23.160;2023-10-19T04:36:15;94163.44;;;6.41;100.00
11049;BME280;5577;42.706;23.160;2023-10-19T04:39:00;94170.72;;;6.35;100.00
11049;BME280;5577;42.706;23.160;2023-10-19T04:41:44;94177.44;;;6.24;100.00
11049;BME280;5577;42.706;23.160;2023-10-19T04:44:28;94178.69;;;6.18;100.00
11049;BME280;5577;42.706;23.160;2023-10-19T04:47:14;94169.88;;;6.23;100.00
11049;BME280;5577;42.706;23.160;2023-10-19T04:49:58;94167.78;;;6.37;100.00
11049;BME280;5577;42.706;23.160;2023-10-19T04:52:42;94180.44;;;6.43;100.00
11049;BME280;5577;42.706;23.160;2023-10-19T04:55:26;94170.06;;;6.47;100.00
11049;BME280;5577;42.706;23.160;2023-10-19T04:58:11;94177.69;;;6.60;100.00
11049;BME280;5577;42.706;23.160;2023-10-19T05:00:55;94173.22;;;6.61;100.00
11049;BME280;5577;42.706;23.160;2023-10-19T05:03:42;94187.13;;;6.61;100.00
11049;BME280;5577;42.706;23.160;2023-10-19T05:06:26;94183.22;;;6.67;100.00
11049;BME280;5577;42.706;23.160;2023-10-19T05:09:10;94185.31;;;6.82;100.00
11049;BME280;5577;42.706;23.160;2023-10-19T05:11:55;94178.94;;;6.83;100.00
11049;BME280;5577;42.706;23.160;2023-10-19T05:14:41;94176.34;;;6.95;100.00
11049;BME280;5577;42.706;23.160;2023-10-19T05:17:26;94171.50;;;7.06;100.00
11049;BME280;5577;42.706;23.160;2023-10-19T05:20:11;94186.91;;;7.16;100.00
11049;BME280;5577;42.706;23.160;2023-10-19T05:22:55;94184.19;;;7.24;100.00
11049;BME280;5577;42.706;23.160;2023-10-19T05:25:39;94195.47;;;7.45;100.00
11049;BME280;5577;42.706;23.160;2023-10-19T05:28:23;94215.16;;;7.60;100.00
11049;BME280;5577;42.706;23.160;2023-10-19T05:31:07;94197.97;;;7.42;100.00
11049;BME280;5577;42.706;23.160;2023-10-19T05:33:52;94202.28;;;7.46;100.00
11049;BME280;5577;42.706;23.160;2023-10-19T05:36:37;94197.03;;;7.58;100.00
11049;BME280;5577;42.706;23.160;2023-10-19T05:39:23;94207.25;;;7.60;100.00
11049;BME280;5577;42.706;23.160;2023-10-19T05:42:11;94205.47;;;7.52;100.00
11049;BME280;5577;42.706;23.160;2023-10-19T05:44:55;94193.25;;;7.68;100.00
11049;BME280;5577;42.706;23.160;2023-10-19T05:47:39;94204.34;;;7.73;100.00
11049;BME280;5577;42.706;23.160;2023-10-19T05:50:23;94207.25;;;7.60;100.00
11049;BME280;5577;42.706;23.160;2023-10-19T05:53:08;94213.53;;;7.67;100.00
11049;BME280;5577;42.706;23.160;2023-10-19T05:55:52;94211.19;;;7.54;100.00
11049;BME280;5577;42.706;23.160;2023-10-19T05:58:36;94219.84;;;7.54;100.00
11049;BME280;5577;42.706;23.160;2023-10-19T06:01:20;94219.13;;;7.66;100.00
11049;BME280;5577;42.706;23.160;2023-10-19T06:04:06;94209.94;;;7.72;100.00
11049;BME280;5577;42.706;23.160;2023-10-19T06:06:50;94217.28;;;7.66;100.00
11049;BME280;5577;42.706;23.160;2023-10-19T06:09:35;94165.84;;;7.48;100.00
11049;BME280;5577;42.706;23.160;2023-10-19T06:12:20;94199.88;;;7.86;100.00
11049;BME280;5577;42.706;23.160;2023-10-19T06:15:04;94212.41;;;7.89;100.00
11049;BME280;5577;42.706;23.160;2023-10-19T06:17:49;94199.09;;;7.97;100.00
11049;BME280;5577;42.706;23.160;2023-10-19T06:20:33;94200.03;;;8.25;100.00
11049;BME280;5577;42.706;23.160;2023-10-19T06:23:17;94192.91;;;8.26;100.00
11049;BME280;5577;42.706;23.160;2023-10-19T06:26:08;94203.81;;;8.36;100.00
11049;BME280;5577;42.706;23.160;2023-10-19T06:28:55;94206.41;;;8.24;100.00
11049;BME280;5577;42.706;23.160;2023-10-19T06:31:46;94209.84;;;8.37;100.00
11049;BME280;5577;42.706;23.160;2023-10-19T06:34:29;94209.50;;;8.62;100.00
11049;BME280;5577;42.706;23.160;2023-10-19T06:37:14;94213.44;;;8.80;100.00
11049;BME280;5577;42.706;23.160;2023-10-19T06:39:58;94206.31;;;8.81;100.00
11049;BME280;5577;42.706;23.160;2023-10-19T06:42:44;94202.59;;;8.70;100.00
11049;BME280;5577;42.706;23.160;2023-10-19T06:45:32;94203.19;;;9.03;100.00
11049;BME280;5577;42.706;23.160;2023-10-19T06:48:15;94184.50;;;8.96;100.00
11049;BME280;5577;42.706;23.160;2023-10-19T06:50:59;94178.44;;;8.96;100.00
11049;BME280;5577;42.706;23.160;2023-10-19T06:53:44;94175.34;;;9.06;100.00
11049;BME280;5577;42.706;23.160;2023-10-19T06:56:28;94190.28;;;9.14;100.00
11049;BME280;5577;42.706;23.160;2023-10-19T06:59:12;94177.13;;;9.29;100.00
11049;BME280;5577;42.706;23.160;2023-10-19T07:01:57;94196.56;;;9.49;100.00
11049;BME280;5577;42.706;23.160;2023-10-19T07:04:40;94197.16;;;9.58;100.00
11049;BME280;5577;42.706;23.160;2023-10-19T07:07:24;94199.19;;;9.49;100.00
11049;BME280;5577;42.706;23.160;2023-10-19T07:10:09;94195.63;;;9.57;100.00
11049;BME280;5577;42.706;23.160;2023-10-19T07:12:56;94197.84;;;9.27;100.00
11049;BME280;5577;42.706;23.160;2023-10-19T07:15:44;94190.50;;;9.48;100.00
11049;BME280;5577;42.706;23.160;2023-10-19T07:18:29;94194.28;;;9.35;100.00
11049;BME280;5577;42.706;23.160;2023-10-19T07:21:13;94205.75;;;9.55;100.00
11049;BME280;5577;42.706;23.160;2023-10-19T07:23:56;94208.72;;;9.65;100.00
11049;BME280;5577;42.706;23.160;2023-10-19T07:26:45;94212.44;;;9.92;100.00
11049;BME280;5577;42.706;23.160;2023-10-19T07:29:48;94211.19;;;10.17;100.00
11049;BME280;5577;42.706;23.160;2023-10-19T07:32:32;94207.88;;;10.20;100.00
11049;BME280;5577;42.706;23.160;2023-10-19T07:35:18;94211.81;;;10.26;100.00
11049;BME280;5577;42.706;23.160;2023-10-19T07:38:03;94224.34;;;10.44;100.00
11049;BME280;5577;42.706;23.160;2023-10-19T07:40:49;94188.75;;;10.57;100.00
11049;BME280;5577;42.706;23.160;2023-10-19T07:43:33;94203.28;;;10.32;100.00
11049;BME280;5577;42.706;23.160;2023-10-19T07:46:17;94207.53;;;10.06;100.00
11049;BME280;5577;42.706;23.160;2023-10-19T07:49:01;94212.56;;;10.11;100.00
11049;BME280;5577;42.706;23.160;2023-10-19T07:51:47;94206.84;;;10.55;100.00
11049;BME280;5577;42.706;23.160;2023-10-19T07:54:32;94211.19;;;10.79;100.00
11049;BME280;5577;42.706;23.160;2023-10-19T07:57:16;94204.69;;;11.11;100.00
11049;BME280;5577;42.706;23.160;2023-10-19T08:00:00;94195.78;;;11.57;100.00
11049;BME280;5577;42.706;23.160;2023-10-19T08:02:44;94188.78;;;11.87;100.00
11049;BME280;5577;42.706;23.160;2023-10-19T08:05:33;94174.59;;;11.99;100.00
11049;BME280;5577;42.706;23.160;2023-10-19T08:08:20;94178.16;;;12.06;100.00
11049;BME280;5577;42.706;23.160;2023-10-19T08:11:03;94173.13;;;12.01;100.00
11049;BME280;5577;42.706;23.160;2023-10-19T08:13:48;94171.41;;;12.57;100.00
11049;BME280;5577;42.706;23.160;2023-10-19T08:16:33;94167.72;;;12.91;100.00
11049;BME280;5577;42.706;23.160;2023-10-19T08:19:17;94169.56;;;12.87;100.00
11049;BME280;5577;42.706;23.160;2023-10-19T08:22:02;94165.91;;;13.21;100.00
11049;BME280;5577;42.706;23.160;2023-10-19T08:24:46;94157.97;;;13.25;100.00
11049;BME280;5577;42.706;23.160;2023-10-19T08:27:30;94150.16;;;13.09;100.00
11049;BME280;5577;42.706;23.160;2023-10-19T08:30:17;94152.34;;;13.63;100.00
11049;BME280;5577;42.706;23.160;2023-10-19T08:33:01;94150.03;;;14.38;100.00
11049;BME280;5577;42.706;23.160;2023-10-19T08:35:46;94158.84;;;14.46;100.00
11049;BME280;5577;42.706;23.160;2023-10-19T08:38:30;94155.34;;;14.34;100.00
11049;BME280;5577;42.706;23.160;2023-10-19T08:41:15;94161.13;;;14.03;100.00
11049;BME280;5577;42.706;23.160;2023-10-19T08:44:00;94158.66;;;13.84;100.00
11049;BME280;5577;42.706;23.160;2023-10-19T08:46:45;94149.09;;;13.47;100.00
11049;BME280;5577;42.706;23.160;2023-10-19T08:49:31;94171.16;;;13.47;100.00
11049;BME280;5577;42.706;23.160;2023-10-19T08:52:15;94161.84;;;13.31;100.00
11049;BME280;5577;42.706;23.160;2023-10-19T08:55:01;94155.09;;;13.37;100.00
11049;BME280;5577;42.706;23.160;2023-10-19T08:57:50;94153.56;;;14.09;100.00
11049;BME280;5577;42.706;23.160;2023-10-19T09:00:48;94154.66;;;14.04;100.00
11049;BME280;5577;42.706;23.160;2023-10-19T09:03:35;94144.44;;;14.50;100.00
11049;BME280;5577;42.706;23.160;2023-10-19T09:06:20;94139.53;;;14.56;100.00
11049;BME280;5577;42.706;23.160;2023-10-19T09:09:04;94129.63;;;14.56;100.00
11049;BME280;5577;42.706;23.160;2023-10-19T09:11:52;94122.59;;;14.30;100.00
11049;BME280;5577;42.706;23.160;2023-10-19T09:14:39;94117.06;;;14.57;100.00
11049;BME280;5577;42.706;23.160;2023-10-19T09:17:30;94129.19;;;14.51;100.00
11049;BME280;5577;42.706;23.160;2023-10-19T09:20:15;94116.00;;;15.36;100.00
11049;BME280;5577;42.706;23.160;2023-10-19T09:23:12;94117.19;;;15.49;100.00
11049;BME280;5577;42.706;23.160;2023-10-19T09:26:00;94104.63;;;15.43;100.00
11049;BME280;5577;42.706;23.160;2023-10-19T09:28:49;94110.09;;;15.03;100.00
11049;BME280;5577;42.706;23.160;2023-10-19T09:31:33;94101.75;;;15.04;100.00
11049;BME280;5577;42.706;23.160;2023-10-19T09:34:18;94100.78;;;15.37;100.00
11049;BME280;5577;42.706;23.160;2023-10-19T09:37:04;94092.03;;;15.50;100.00
11049;BME280;5577;42.706;23.160;2023-10-19T09:39:48;94071.31;;;15.19;100.00
11049;BME280;5577;42.706;23.160;2023-10-19T09:42:32;94097.88;;;14.95;100.00
11049;BME280;5577;42.706;23.160;2023-10-19T09:45:19;94104.31;;;14.87;100.00
11049;BME280;5577;42.706;23.160;2023-10-19T09:48:05;94101.19;;;15.53;100.00
11049;BME280;5577;42.706;23.160;2023-10-19T09:50:54;94098.94;;;15.62;100.00
11049;BME280;5577;42.706;23.160;2023-10-19T09:53:39;94106.25;;;14.90;100.00
11049;BME280;5577;42.706;23.160;2023-10-19T09:56:28;94103.53;;;14.83;100.00
11049;BME280;5577;42.706;23.160;2023-10-19T09:59:23;94092.16;;;14.93;100.00
11049;BME280;5577;42.706;23.160;2023-10-19T10:02:12;94081.81;;;15.91;100.00
11049;BME280;5577;42.706;23.160;2023-10-19T10:04:59;94088.72;;;16.83;100.00
11049;BME280;5577;42.706;23.160;2023-10-19T10:07:43;94094.50;;;17.71;100.00
11049;BME280;5577;42.706;23.160;2023-10-19T10:10:27;94082.22;;;17.77;99.34
11049;BME280;5577;42.706;23.160;2023-10-19T10:16:13;94082.78;;;20.71;74.39
11049;BME280;5577;42.706;23.160;2023-10-19T10:18:59;94076.97;;;20.49;73.03
11049;BME280;5577;42.706;23.160;2023-10-19T10:22:09;94057.38;;;20.26;73.84
11049;BME280;5577;42.706;23.160;2023-10-19T10:24:59;94058.03;;;19.53;75.48
11049;BME280;5577;42.706;23.160;2023-10-19T10:27:51;94031.97;;;19.50;81.27
11049;BME280;5577;42.706;23.160;2023-10-19T10:30:35;94034.66;;;19.50;80.11
11049;BME280;5577;42.706;23.160;2023-10-19T10:33:42;94031.94;;;19.80;74.23
11049;BME280;5577;42.706;23.160;2023-10-19T10:36:58;94020.03;;;19.82;75.23
11049;BME280;5577;42.706;23.160;2023-10-19T10:39:43;94019.53;;;20.82;71.61
11049;BME280;5577;42.706;23.160;2023-10-19T10:42:28;94001.13;;;21.39;66.66
11049;BME280;5577;42.706;23.160;2023-10-19T10:45:19;93998.22;;;21.30;66.39
11049;BME280;5577;42.706;23.160;2023-10-19T10:48:15;93984.19;;;21.03;66.26
11049;BME280;5577;42.706;23.160;2023-10-19T10:50:59;93992.72;;;19.87;71.63
11049;BME280;5577;42.706;23.160;2023-10-19T10:53:45;93982.06;;;19.23;76.85
11049;BME280;5577;42.706;23.160;2023-10-19T10:56:30;93969.38;;;19.57;80.75
11049;BME280;5577;42.706;23.160;2023-10-19T10:59:15;93959.06;;;20.02;77.19
11049;BME280;5577;42.706;23.160;2023-10-19T11:02:00;93949.84;;;19.79;78.26
11049;BME280;5577;42.706;23.160;2023-10-19T11:04:45;93955.75;;;19.94;76.79
11049;BME280;5577;42.706;23.160;2023-10-19T11:07:29;93962.50;;;20.29;73.34
11049;BME280;5577;42.706;23.160;2023-10-19T11:10:13;93960.00;;;20.80;73.59
11049;BME280;5577;42.706;23.160;2023-10-19T11:13:02;93957.06;;;20.06;72.03
11049;BME280;5577;42.706;23.160;2023-10-19T11:15:51;93943.19;;;19.88;74.88
11049;BME280;5577;42.706;23.160;2023-10-19T11:18:41;93947.78;;;19.64;77.82
11049;BME280;5577;42.706;23.160;2023-10-19T11:21:29;93943.41;;;19.73;77.21
11049;BME280;5577;42.706;23.160;2023-10-19T11:24:24;93931.72;;;19.83;77.09
11049;BME280;5577;42.706;23.160;2023-10-19T11:27:08;93925.13;;;19.65;79.44
11049;BME280;5577;42.706;23.160;2023-10-19T11:29:58;93931.06;;;19.53;81.95
11049;BME280;5577;42.706;23.160;2023-10-19T11:32:42;93930.16;;;19.86;76.68
11049;BME280;5577;42.706;23.160;2023-10-19T11:35:29;93911.41;;;19.83;79.11
11049;BME280;5577;42.706;23.160;2023-10-19T11:38:14;93910.66;;;19.59;78.56
11049;BME280;5577;42.706;23.160;2023-10-19T11:40:58;93929.16;;;19.53;80.76
11049;BME280;5577;42.706;23.160;2023-10-19T11:43:44;93916.84;;;19.79;84.21
11049;BME280;5577;42.706;23.160;2023-10-19T11:46:29;93918.06;;;19.98;84.45
11049;BME280;5577;42.706;23.160;2023-10-19T11:49:13;93916.53;;;20.43;80.02
11049;BME280;5577;42.706;23.160;2023-10-19T11:51:57;93913.06;;;20.81;80.55
11049;BME280;5577;42.706;23.160;2023-10-19T11:54:41;93907.44;;;20.95;76.17
11049;BME280;5577;42.706;23.160;2023-10-19T11:57:26;93912.25;;;21.04;75.01
11049;BME280;5577;42.706;23.160;2023-10-19T12:00:11;93911.41;;;20.87;73.15
11049;BME280;5577;42.706;23.160;2023-10-19T12:02:57;93900.47;;;20.98;71.55
11049;BME280;5577;42.706;23.160;2023-10-19T12:05:41;93884.41;;;21.30;69.13
11049;BME280;5577;42.706;23.160;2023-10-19T12:08:26;93894.22;;;21.72;68.80
11049;BME280;5577;42.706;23.160;2023-10-19T12:11:10;93888.31;;;21.93;66.25
11049;BME280;5577;42.706;23.160;2023-10-19T12:14:03;93884.84;;;22.37;64.18
11049;BME280;5577;42.706;23.160;2023-10-19T12:16:47;93892.50;;;22.38;61.84
11049;BME280;5577;42.706;23.160;2023-10-19T12:19:32;93873.88;;;22.15;64.24
11049;BME280;5577;42.706;23.160;2023-10-19T12:22:16;93880.28;;;22.50;62.54
11049;BME280;5577;42.706;23.160;2023-10-19T12:25:00;93878.91;;;22.58;61.64
11049;BME280;5577;42.706;23.160;2023-10-19T12:27:43;93869.97;;;22.16;62.01
11049;BME280;5577;42.706;23.160;2023-10-19T12:30:27;93879.09;;;22.06;61.68
11049;BME280;5577;42.706;23.160;2023-10-19T12:33:15;93865.81;;;21.99;62.92
11049;BME280;5577;42.706;23.160;2023-10-19T12:35:59;93871.00;;;22.06;62.70
11049;BME280;5577;42.706;23.160;2023-10-19T12:38:43;93870.09;;;21.81;64.29
11049;BME280;5577;42.706;23.160;2023-10-19T12:41:28;93863.63;;;21.78;66.13
11049;BME280;5577;42.706;23.160;2023-10-19T12:44:12;93857.13;;;22.36;64.91
11049;BME280;5577;42.706;23.160;2023-10-19T12:46:59;93862.47;;;22.53;61.07
11049;BME280;5577;42.706;23.160;2023-10-19T12:49:43;93831.91;;;22.43;61.11
11049;BME280;5577;42.706;23.160;2023-10-19T12:52:30;93864.94;;;22.76;60.82
11049;BME280;5577;42.706;23.160;2023-10-19T12:55:19;93860.56;;;22.53;60.37
11049;BME280;5577;42.706;23.160;2023-10-19T12:58:04;93853.50;;;22.27;61.60
11049;BME280;5577;42.706;23.160;2023-10-19T13:00:53;93851.50;;;22.60;60.76
11049;BME280;5577;42.706;23.160;2023-10-19T13:03:38;93751.44;;;21.40;62.22
11049;BME280;5577;42.706;23.160;2023-10-19T13:06:24;93841.78;;;22.05;62.77
11049;BME280;5577;42.706;23.160;2023-10-19T13:09:13;93821.25;;;22.23;60.83
11049;BME280;5577;42.706;23.160;2023-10-19T13:12:00;93839.84;;;22.63;59.88
11049;BME280;5577;42.706;23.160;2023-10-19T13:14:44;93841.66;;;22.94;59.83
11049;BME280;5577;42.706;23.160;2023-10-19T13:17:28;93825.13;;;23.30;59.42
11049;BME280;5577;42.706;23.160;2023-10-19T13:20:12;93823.59;;;23.54;58.06
11049;BME280;5577;42.706;23.160;2023-10-19T13:23:03;93815.41;;;23.32;58.96
11049;BME280;5577;42.706;23.160;2023-10-19T13:25:48;93814.88;;;23.00;57.69
11049;BME280;5577;42.706;23.160;2023-10-19T13:28:39;93820.00;;;22.69;59.71
11049;BME280;5577;42.706;23.160;2023-10-19T13:31:23;93810.19;;;22.46;58.79
11049;BME280;5577;42.706;23.160;2023-10-19T13:34:08;93799.00;;;22.48;59.21
11049;BME280;5577;42.706;23.160;2023-10-19T13:36:54;93804.50;;;22.86;59.63
11049;BME280;5577;42.706;23.160;2023-10-19T13:39:40;93795.72;;;22.82;58.26
11049;BME280;5577;42.706;23.160;2023-10-19T13:42:24;93791.28;;;22.63;59.22
11049;BME280;5577;42.706;23.160;2023-10-19T13:45:09;93778.00;;;22.56;60.38
11049;BME280;5577;42.706;23.160;2023-10-19T13:47:56;93780.00;;;22.39;62.17
11049;BME280;5577;42.706;23.160;2023-10-19T13:50:47;93740.03;;;21.64;64.15
11049;BME280;5577;42.706;23.160;2023-10-19T13:53:31;93763.78;;;21.69;65.64
11049;BME280;5577;42.706;23.160;2023-10-19T13:56:16;93766.00;;;21.71;65.42
11049;BME280;5577;42.706;23.160;2023-10-19T13:59:00;93766.78;;;21.87;65.70
11049;BME280;5577;42.706;23.160;2023-10-19T14:01:44;93760.91;;;22.05;65.91
11049;BME280;5577;42.706;23.160;2023-10-19T14:04:28;93749.47;;;22.01;64.39
11049;BME280;5577;42.706;23.160;2023-10-19T14:07:12;93750.63;;;21.87;65.93
11049;BME280;5577;42.706;23.160;2023-10-19T14:09:55;93744.88;;;22.14;66.05
11049;BME280;5577;42.706;23.160;2023-10-19T14:12:40;93733.63;;;22.03;66.91
11049;BME280;5577;42.706;23.160;2023-10-19T14:15:27;93735.94;;;22.17;65.13
11049;BME280;5577;42.706;23.160;2023-10-19T14:18:11;93719.75;;;21.76;66.30
11049;BME280;5577;42.706;23.160;2023-10-19T14:20:56;93718.06;;;21.50;68.13
11049;BME280;5577;42.706;23.160;2023-10-19T14:23:40;93710.44;;;21.48;69.13
11049;BME280;5577;42.706;23.160;2023-10-19T14:26:24;93723.50;;;21.34;70.80
11049;BME280;5577;42.706;23.160;2023-10-19T14:29:08;93721.47;;;21.22;71.94
11049;BME280;5577;42.706;23.160;2023-10-19T14:31:52;93735.97;;;21.12;72.39
11049;BME280;5577;42.706;23.160;2023-10-19T14:34:36;93747.22;;;20.91;74.73
11049;BME280;5577;42.706;23.160;2023-10-19T14:37:20;93749.06;;;20.78;77.22
11049;BME280;5577;42.706;23.160;2023-10-19T14:40:09;93745.78;;;20.35;80.66
11049;BME280;5577;42.706;23.160;2023-10-19T14:42:54;93746.66;;;20.09;84.37